Time;durP1;ratioP1;P1;durP2;ratioP2;P2;SDS_P1;SDS_P2;PMS_P1;PMS_P2;Temp;Humidity;BMP_temperature;BMP_pressure;BME280_temperature;BME280_humidity;BME280_pressure;Samples;Min_cycle;Max_cycle;Signal;HPM_P1;HPM_P2
2022/07/04 00:01:33;;;;;;;7.32;3.65;;;;;;;12.31;100.00;101866.69;5246355;28;20498;-69
2022/07/04 00:04:04;;;;;;;5.63;3.00;;;;;;;12.27;99.88;101861.63;5248000;28;20394;-69
2022/07/04 00:06:35;;;;;;;8.20;3.67;;;;;;;12.22;100.00;101856.59;5247811;28;20564;-70
2022/07/04 00:09:07;;;;;;;6.68;4.13;;;;;;;12.23;100.00;101858.31;5256912;28;20492;-69
2022/07/04 00:11:38;;;;;;;4.93;3.30;;;;;;;12.24;100.00;101856.50;5244064;28;20048;-70
2022/07/04 00:14:09;;;;;;;4.82;3.00;;;;;;;12.18;100.00;101854.22;5246573;28;20025;-69
2022/07/04 00:16:40;;;;;;;8.18;3.17;;;;;;;12.12;100.00;101855.50;5240870;28;20056;-69
2022/07/04 00:19:12;;;;;;;6.80;3.63;;;;;;;12.12;100.00;101850.16;5240969;28;20529;-69
2022/07/04 00:21:43;;;;;;;8.57;3.53;;;;;;;12.09;100.00;101842.34;5241312;28;20414;-70
2022/07/04 00:24:15;;;;;;;5.30;3.28;;;;;;;12.07;100.00;101842.44;5245863;28;20318;-70
2022/07/04 00:26:46;;;;;;;7.30;3.03;;;;;;;12.02;100.00;101849.88;5244975;28;20028;-70
2022/07/04 00:29:18;;;;;;;5.32;3.25;;;;;;;12.02;100.00;101847.22;5242663;28;20574;-69
2022/07/04 00:31:49;;;;;;;4.65;3.20;;;;;;;12.00;100.00;101850.97;5243879;28;20048;-69
2022/07/04 00:34:21;;;;;;;6.28;3.10;;;;;;;11.92;100.00;101844.31;5244027;28;20071;-70
2022/07/04 00:36:52;;;;;;;5.90;3.17;;;;;;;11.88;100.00;101848.09;5240432;28;20029;-70
2022/07/04 00:39:24;;;;;;;5.47;3.15;;;;;;;11.91;100.00;101853.31;5242157;28;20490;-70
2022/07/04 00:41:55;;;;;;;6.35;3.67;;;;;;;11.86;100.00;101858.06;5242266;28;20777;-69
2022/07/04 00:44:26;;;;;;;6.85;3.58;;;;;;;11.80;100.00;101852.25;5242241;28;20086;-69
2022/07/04 00:46:57;;;;;;;7.38;3.92;;;;;;;11.75;100.00;101839.19;5238505;28;20403;-69
2022/07/04 00:49:29;;;;;;;7.07;3.97;;;;;;;11.73;100.00;101841.94;5243020;28;20025;-69
2022/07/04 00:52:01;;;;;;;6.95;3.65;;;;;;;11.70;100.00;101852.00;5242171;28;20396;-70
2022/07/04 00:54:33;;;;;;;5.05;3.70;;;;;;;11.67;100.00;101852.19;5243007;28;20029;-70
2022/07/04 00:57:04;;;;;;;5.95;3.40;;;;;;;11.69;100.00;101852.94;5244606;28;20076;-70
2022/07/04 00:59:35;;;;;;;6.53;3.75;;;;;;;11.63;100.00;101853.34;5237687;28;20044;-69
2022/07/04 01:02:07;;;;;;;8.18;4.10;;;;;;;11.59;100.00;101847.34;5244588;28;20029;-70
2022/07/04 01:04:39;;;;;;;5.20;3.60;;;;;;;11.60;100.00;101845.53;5249124;28;20063;-69
2022/07/04 01:07:11;;;;;;;6.75;3.75;;;;;;;11.57;100.00;101847.44;5242289;28;20454;-69
2022/07/04 01:09:44;;;;;;;7.28;3.60;;;;;;;11.53;100.00;101839.72;5244680;28;20525;-69
2022/07/04 01:12:29;;;;;;;5.63;3.75;;;;;;;11.52;100.00;101838.00;5243125;28;20566;-69
2022/07/04 01:15:00;;;;;;;5.43;3.50;;;;;;;11.46;100.00;101841.94;5240045;28;20025;-70
2022/07/04 01:17:31;;;;;;;5.15;3.85;;;;;;;11.44;100.00;101835.81;5238860;28;20514;-70
2022/07/04 01:20:04;;;;;;;6.47;4.15;;;;;;;11.45;100.00;101832.22;5236363;28;20088;-70
2022/07/04 01:22:35;;;;;;;4.90;3.85;;;;;;;11.40;100.00;101828.97;5242902;28;20032;-69
2022/07/04 01:25:08;;;;;;;7.00;4.00;;;;;;;11.37;100.00;101829.16;5245160;28;20552;-70
2022/07/04 01:27:39;;;;;;;7.13;4.10;;;;;;;11.36;100.00;101824.78;5242452;28;20575;-70
2022/07/04 01:30:11;;;;;;;6.82;3.70;;;;;;;11.34;100.00;101818.69;5241050;28;20037;-69
2022/07/04 01:32:42;;;;;;;7.22;4.00;;;;;;;11.33;100.00;101820.50;5246077;28;20025;-70
2022/07/04 01:35:13;;;;;;;6.53;3.70;;;;;;;11.25;100.00;101817.44;5242644;28;20033;-69
2022/07/04 01:37:45;;;;;;;6.82;3.53;;;;;;;11.26;100.00;101812.97;5251139;28;20038;-69
2022/07/04 01:40:16;;;;;;;7.43;4.07;;;;;;;11.26;100.00;101821.00;5237467;28;20025;-70
2022/07/04 01:42:48;;;;;;;7.68;4.45;;;;;;;11.23;100.00;101807.81;5245847;28;20025;-69
2022/07/04 01:45:19;;;;;;;9.00;4.95;;;;;;;11.22;100.00;101806.09;5240806;28;20091;-69
2022/07/04 01:47:51;;;;;;;7.82;4.47;;;;;;;11.18;100.00;101800.97;5245069;28;20115;-70
2022/07/04 01:50:22;;;;;;;6.75;4.20;;;;;;;11.24;100.00;101801.50;5235554;28;20087;-70
2022/07/04 01:52:53;;;;;;;5.53;3.40;;;;;;;11.14;100.00;101802.13;5241773;28;20025;-69
2022/07/04 01:55:25;;;;;;;8.82;4.43;;;;;;;11.23;100.00;101808.66;5238409;28;20029;-69
2022/07/04 01:57:57;;;;;;;5.60;4.18;;;;;;;11.13;100.00;101807.53;5244964;28;20988;-69
2022/07/04 02:03:18;;;;;;;5.78;4.00;;;;;;;11.15;100.00;101798.47;5245463;28;20052;-69
2022/07/04 02:05:49;;;;;;;7.03;4.25;;;;;;;11.12;100.00;101796.00;5243638;28;20492;-69
2022/07/04 02:08:20;;;;;;;7.25;4.35;;;;;;;11.15;100.00;101792.28;5236045;28;20383;-69
2022/07/04 02:10:51;;;;;;;7.20;4.95;;;;;;;11.14;100.00;101788.75;5241641;28;20395;-70
2022/07/04 02:13:23;;;;;;;6.15;4.30;;;;;;;11.03;100.00;101801.94;5245269;28;20032;-69
2022/07/04 02:15:54;;;;;;;5.95;4.20;;;;;;;11.07;100.00;101794.59;5241821;28;20021;-69
2022/07/04 02:18:25;;;;;;;6.72;4.07;;;;;;;10.99;100.00;101790.59;5254355;28;20029;-69
2022/07/04 02:20:56;;;;;;;6.88;4.43;;;;;;;10.94;100.00;101792.66;5246475;28;20037;-70
2022/07/04 02:23:28;;;;;;;6.82;4.43;;;;;;;10.93;100.00;101784.75;5245745;28;20033;-70
2022/07/04 02:25:59;;;;;;;6.25;4.10;;;;;;;10.97;100.00;101796.97;5244723;28;20047;-70
2022/07/04 02:28:30;;;;;;;8.02;4.85;;;;;;;10.92;100.00;101799.06;5240957;28;20227;-69
2022/07/04 02:31:02;;;;;;;7.85;4.93;;;;;;;10.86;100.00;101799.47;5245002;28;20379;-69
2022/07/04 02:33:33;;;;;;;6.68;4.47;;;;;;;10.86;100.00;101797.66;5250869;28;20040;-69
2022/07/04 02:36:05;;;;;;;8.50;4.60;;;;;;;10.83;100.00;101804.97;5249715;28;20376;-70
2022/07/04 02:38:36;;;;;;;6.85;4.60;;;;;;;10.86;100.00;101807.47;5250536;28;20029;-70
2022/07/04 02:41:07;;;;;;;6.82;4.97;;;;;;;10.86;100.00;101808.31;5255311;28;20045;-70
2022/07/04 02:43:38;;;;;;;8.10;4.68;;;;;;;10.81;100.00;101801.56;5251267;28;20140;-69
2022/07/04 02:46:10;;;;;;;7.82;4.68;;;;;;;10.79;100.00;101802.50;5258850;28;20044;-69
2022/07/04 02:48:41;;;;;;;7.30;4.85;;;;;;;10.74;100.00;101801.09;5247516;28;20048;-69
2022/07/04 02:51:12;;;;;;;7.05;4.93;;;;;;;10.72;100.00;101803.84;5242906;28;20538;-69
2022/07/04 02:53:43;;;;;;;8.63;4.85;;;;;;;10.73;100.00;101802.88;5249584;28;20025;-69
2022/07/04 02:56:15;;;;;;;7.30;4.90;;;;;;;10.65;100.00;101802.50;5262337;28;20052;-70
2022/07/04 02:58:46;;;;;;;7.07;4.65;;;;;;;10.65;100.00;101805.16;5253492;28;20538;-70
2022/07/04 03:01:19;;;;;;;9.07;4.55;;;;;;;10.73;100.00;101810.03;5246916;28;20091;-69
2022/07/04 03:03:50;;;;;;;9.57;5.68;;;;;;;10.74;100.00;101812.63;5251005;28;20806;-69
2022/07/04 03:06:21;;;;;;;9.50;5.25;;;;;;;10.64;100.00;101814.13;5251247;28;20037;-70
2022/07/04 03:08:53;;;;;;;8.55;5.63;;;;;;;10.59;100.00;101819.75;5249014;28;20451;-69
2022/07/04 03:11:24;;;;;;;7.43;4.60;;;;;;;10.61;100.00;101817.00;5240614;28;20495;-69
2022/07/04 03:13:55;;;;;;;8.68;5.13;;;;;;;10.62;100.00;101818.69;5250028;28;20119;-69
2022/07/04 03:16:27;;;;;;;10.15;5.20;;;;;;;10.66;100.00;101832.72;5252556;28;20509;-69
2022/07/04 03:18:58;;;;;;;7.47;5.13;;;;;;;10.61;100.00;101833.00;5250507;28;20083;-69
2022/07/04 03:21:29;;;;;;;7.53;5.07;;;;;;;10.58;100.00;101827.84;5239981;28;20206;-69
2022/07/04 03:24:01;;;;;;;8.23;4.88;;;;;;;10.57;100.00;101831.47;5243481;28;20029;-69
2022/07/04 03:26:32;;;;;;;8.75;4.75;;;;;;;10.61;100.00;101835.66;5244353;28;20470;-69
2022/07/04 03:29:04;;;;;;;8.23;4.80;;;;;;;10.62;100.00;101832.03;5249059;28;20086;-69
2022/07/04 03:31:35;;;;;;;8.07;5.30;;;;;;;10.60;100.00;101841.94;5246842;28;20380;-69
2022/07/04 03:34:06;;;;;;;8.63;5.53;;;;;;;10.59;100.00;101841.09;5243175;28;20036;-69
2022/07/04 03:36:38;;;;;;;7.10;4.57;;;;;;;10.61;100.00;101841.00;5244444;28;20033;-69
2022/07/04 03:39:09;;;;;;;9.73;5.25;;;;;;;10.71;100.00;101849.31;5242246;28;20450;-69
2022/07/04 03:41:40;;;;;;;8.45;4.90;;;;;;;10.66;100.00;101849.59;5244477;28;20437;-70
2022/07/04 03:44:11;;;;;;;6.97;5.50;;;;;;;10.65;100.00;101857.69;5246536;28;20029;-69
2022/07/04 03:46:43;;;;;;;10.65;5.40;;;;;;;10.66;100.00;101849.59;5240858;28;20045;-69
2022/07/04 03:49:14;;;;;;;9.20;5.32;;;;;;;10.66;100.00;101860.28;5246285;28;20064;-69
2022/07/04 03:51:45;;;;;;;9.77;5.38;;;;;;;10.68;100.00;101865.50;5244089;28;20025;-69
2022/07/04 03:54:17;;;;;;;8.95;5.13;;;;;;;10.73;100.00;101868.75;5246748;28;20132;-69
2022/07/04 03:56:48;;;;;;;8.18;5.30;;;;;;;10.71;100.00;101866.19;5243317;28;20045;-69
2022/07/04 03:59:19;;;;;;;8.90;5.38;;;;;;;10.69;100.00;101868.09;5246952;28;20077;-69
2022/07/04 04:01:51;;;;;;;7.38;5.18;;;;;;;10.65;100.00;101868.38;5245571;28;20044;-70
2022/07/04 04:07:12;;;;;;;9.95;5.13;;;;;;;10.69;100.00;101870.75;5245351;28;20037;-69
2022/07/04 04:09:43;;;;;;;6.82;5.50;;;;;;;10.84;100.00;101866.31;5245285;28;20551;-69
2022/07/04 04:12:15;;;;;;;8.90;5.43;;;;;;;10.81;100.00;101866.47;5242730;28;20418;-70
2022/07/04 04:14:46;;;;;;;8.73;5.72;;;;;;;10.85;100.00;101860.00;5242056;28;20511;-69
2022/07/04 04:17:17;;;;;;;9.15;6.18;;;;;;;10.93;100.00;101855.06;5243142;28;20025;-69
2022/07/04 04:19:48;;;;;;;9.20;5.82;;;;;;;10.95;100.00;101871.00;5242499;28;20025;-69
2022/07/04 04:22:20;;;;;;;8.85;5.40;;;;;;;10.95;100.00;101874.50;5238546;28;20144;-69
2022/07/04 04:24:51;;;;;;;10.40;6.18;;;;;;;11.07;100.00;101877.38;5241518;28;20155;-69
2022/07/04 04:27:22;;;;;;;9.15;5.88;;;;;;;11.10;100.00;101880.72;5243062;28;20029;-69
2022/07/04 04:29:53;;;;;;;10.18;6.45;;;;;;;11.17;100.00;101883.84;5244693;28;20033;-69
2022/07/04 04:32:25;;;;;;;10.25;6.53;;;;;;;11.25;100.00;101881.56;5244439;28;20033;-69
2022/07/04 04:34:57;;;;;;;10.93;5.90;;;;;;;11.31;100.00;101885.66;5241237;28;20023;-70
2022/07/04 04:37:29;;;;;;;9.75;5.53;;;;;;;11.38;100.00;101898.53;5242829;28;20131;-69
2022/07/04 04:40:00;;;;;;;7.57;5.55;;;;;;;11.41;100.00;101893.94;5239060;28;20033;-69
2022/07/04 04:42:32;;;;;;;11.35;6.50;;;;;;;11.46;100.00;101890.03;5239316;28;20054;-69
2022/07/04 04:45:04;;;;;;;9.93;5.45;;;;;;;11.56;100.00;101893.84;5241828;28;20505;-69
2022/07/04 04:47:36;;;;;;;9.07;5.32;;;;;;;11.57;100.00;101884.88;5244326;28;20025;-69
2022/07/04 04:50:11;;;;;;;13.77;5.57;;;;;;;11.64;100.00;101887.13;5241451;28;20035;-69
2022/07/04 04:52:42;;;;;;;10.00;5.35;;;;;;;11.70;100.00;101881.41;5240737;28;20032;-69
2022/07/04 04:55:13;;;;;;;7.43;5.60;;;;;;;11.74;100.00;101872.22;5245182;28;20033;-69
2022/07/04 04:57:45;;;;;;;7.90;5.10;;;;;;;11.77;100.00;101878.25;5239442;28;20110;-70
2022/07/04 05:00:16;;;;;;;8.82;5.13;;;;;;;11.82;100.00;101882.44;5244359;28;20438;-70
2022/07/04 05:02:47;;;;;;;11.70;5.75;;;;;;;11.85;100.00;101877.75;5245133;28;20050;-69
2022/07/04 05:05:19;;;;;;;10.02;5.03;;;;;;;11.88;100.00;101874.00;5242265;28;20025;-69
2022/07/04 05:07:50;;;;;;;8.48;5.50;;;;;;;11.93;100.00;101875.44;5243415;28;20525;-69
2022/07/04 05:10:22;;;;;;;9.90;5.70;;;;;;;12.00;100.00;101872.38;5244436;28;20508;-69
2022/07/04 05:12:53;;;;;;;8.50;5.22;;;;;;;12.01;100.00;101871.41;5242754;28;20475;-69
2022/07/04 05:15:24;;;;;;;9.82;5.75;;;;;;;12.09;100.00;101877.97;5241456;28;20031;-69
2022/07/04 05:17:56;;;;;;;8.52;5.05;;;;;;;12.11;100.00;101870.69;5239109;28;20061;-69
2022/07/04 05:20:27;;;;;;;10.32;5.63;;;;;;;12.22;100.00;101872.66;5240025;28;20033;-70
2022/07/04 05:22:59;;;;;;;10.85;5.43;;;;;;;12.27;100.00;101870.53;5233498;28;20031;-70
2022/07/04 05:25:30;;;;;;;8.80;5.60;;;;;;;12.33;100.00;101870.13;5238210;28;20116;-69
2022/07/04 05:28:02;;;;;;;7.72;5.10;;;;;;;12.35;100.00;101870.03;5234112;28;20151;-69
2022/07/04 05:30:33;;;;;;;8.68;5.25;;;;;;;12.42;100.00;101870.44;5240132;28;20028;-70
2022/07/04 05:33:04;;;;;;;9.32;4.97;;;;;;;12.46;100.00;101875.47;5235468;28;20029;-70
2022/07/04 05:35:36;;;;;;;11.38;5.68;;;;;;;12.53;100.00;101878.59;5244736;28;20478;-70
2022/07/04 05:38:07;;;;;;;13.57;6.18;;;;;;;12.63;100.00;101873.47;5240482;28;20033;-69
2022/07/04 05:40:38;;;;;;;9.60;5.32;;;;;;;12.70;100.00;101875.63;5245618;28;20029;-70
2022/07/04 05:43:11;;;;;;;10.98;5.53;;;;;;;12.74;100.00;101882.47;5245476;28;20049;-70
2022/07/04 05:45:43;;;;;;;9.43;5.57;;;;;;;12.82;100.00;101878.44;5249643;28;20774;-70
2022/07/04 05:48:14;;;;;;;7.45;5.30;;;;;;;12.90;100.00;101884.94;5237971;28;20047;-69
2022/07/04 05:50:46;;;;;;;10.60;4.97;;;;;;;12.95;100.00;101882.81;5239875;28;20025;-69
2022/07/04 05:53:17;;;;;;;9.45;4.80;;;;;;;12.99;100.00;101891.50;5238037;28;20585;-69
2022/07/04 05:55:48;;;;;;;7.55;4.60;;;;;;;13.02;100.00;101893.97;5239031;28;20033;-69
2022/07/04 05:58:19;;;;;;;9.32;4.95;;;;;;;13.07;100.00;101890.97;5243171;28;20095;-69
2022/07/04 06:00:51;;;;;;;10.40;5.38;;;;;;;13.20;100.00;101896.31;5258314;28;20025;-70
2022/07/04 06:03:22;;;;;;;7.55;5.10;;;;;;;13.34;100.00;101891.69;5248249;28;20037;-70
2022/07/04 06:05:53;;;;;;;11.68;5.55;;;;;;;13.38;100.00;101896.84;5238740;28;20024;-70
2022/07/04 06:08:25;;;;;;;9.77;5.88;;;;;;;13.47;100.00;101904.25;5242659;28;20057;-70
2022/07/04 06:10:57;;;;;;;12.07;4.80;;;;;;;13.56;100.00;101902.69;5244642;28;20100;-69
2022/07/04 06:13:28;;;;;;;12.70;5.75;;;;;;;13.66;100.00;101890.34;5248709;28;20025;-69
2022/07/04 06:16:00;;;;;;;9.60;5.40;;;;;;;13.86;100.00;101894.25;5251071;28;20034;-69
2022/07/04 06:18:31;;;;;;;9.35;5.20;;;;;;;14.09;100.00;101892.53;5249991;28;20032;-69
2022/07/04 06:21:02;;;;;;;7.85;4.60;;;;;;;14.36;100.00;101894.97;5248573;28;20129;-70
2022/07/04 06:23:34;;;;;;;9.88;4.65;;;;;;;14.67;100.00;101893.53;5252060;28;20677;-70
2022/07/04 06:26:05;;;;;;;7.70;4.20;;;;;;;14.87;100.00;101897.34;5250379;28;20021;-71
2022/07/04 06:28:36;;;;;;;10.88;4.43;;;;;;;15.07;100.00;101903.00;5240995;28;20919;-70
2022/07/04 06:31:07;;;;;;;8.07;3.90;;;;;;;15.12;100.00;101899.97;5248477;28;20454;-72
2022/07/04 06:35:44;;;;;;;6.88;3.75;;;;;;;15.15;100.00;101897.00;5250671;28;20040;-71
2022/07/04 06:36:30;;;;;;;7.38;3.80;;;;;;;15.14;98.92;101893.47;5251061;28;20040;-71
2022/07/04 06:39:02;;;;;;;7.47;4.13;;;;;;;15.15;99.31;101895.19;5240531;28;20041;-71
2022/07/04 06:41:33;;;;;;;8.10;3.88;;;;;;;15.28;99.26;101903.13;5242732;28;20036;-71
2022/07/04 06:44:04;;;;;;;7.60;3.60;;;;;;;15.40;98.47;101888.72;5246159;28;20036;-70
2022/07/04 06:46:36;;;;;;;5.82;3.67;;;;;;;15.65;97.70;101903.72;5254430;28;20021;-71
2022/07/04 06:49:07;;;;;;;8.77;3.80;;;;;;;15.99;94.18;101903.69;5249965;28;20032;-70
2022/07/04 06:51:38;;;;;;;6.50;3.10;;;;;;;16.23;91.85;101902.63;5249965;28;20532;-70
2022/07/04 06:54:10;;;;;;;4.38;2.60;;;;;;;16.62;91.76;101913.69;5245679;28;20021;-70
2022/07/04 06:56:41;;;;;;;6.30;2.95;;;;;;;16.92;88.92;101910.25;5256484;28;20045;-70
2022/07/04 06:59:12;;;;;;;5.85;2.35;;;;;;;17.13;87.93;101901.28;5255360;28;20032;-70
2022/07/04 07:01:44;;;;;;;7.28;2.70;;;;;;;17.17;84.14;101897.31;5248826;28;20033;-71
2022/07/04 07:04:15;;;;;;;8.63;2.30;;;;;;;17.21;83.27;101887.97;5246180;28;20053;-70
2022/07/04 07:06:46;;;;;;;7.57;1.98;;;;;;;17.29;83.95;101885.44;5245331;28;20025;-70
2022/07/04 07:09:17;;;;;;;5.22;1.95;;;;;;;17.36;82.14;101883.91;5246873;28;20353;-70
2022/07/04 07:11:49;;;;;;;5.53;2.28;;;;;;;17.34;82.39;101888.59;5244963;28;20044;-70
2022/07/04 07:14:20;;;;;;;5.20;2.33;;;;;;;17.41;82.43;101895.16;5243645;28;20099;-70
2022/07/04 07:16:51;;;;;;;5.82;2.10;;;;;;;17.64;82.90;101889.53;5254452;28;20037;-70
2022/07/04 07:19:22;;;;;;;6.60;2.30;;;;;;;17.90;81.65;101889.06;5247507;28;20203;-71
2022/07/04 07:21:54;;;;;;;6.78;2.30;;;;;;;18.10;81.04;101884.53;5248571;28;20040;-70
2022/07/04 07:24:25;;;;;;;8.30;2.47;;;;;;;18.25;77.83;101885.81;5248287;28;20029;-70
2022/07/04 07:26:57;;;;;;;5.85;2.28;;;;;;;18.28;79.92;101888.22;5254719;28;20024;-71
2022/07/04 07:29:29;;;;;;;6.78;2.70;;;;;;;18.20;78.52;101893.50;5243833;28;20025;-71
2022/07/04 07:32:00;;;;;;;5.53;2.55;;;;;;;18.19;77.86;101900.72;5249237;28;20040;-71
2022/07/04 07:34:32;;;;;;;5.35;2.22;;;;;;;18.22;74.84;101903.16;5251601;28;20028;-71
2022/07/04 07:37:03;;;;;;;5.65;1.70;;;;;;;18.20;75.19;101910.56;5250405;28;20025;-71
2022/07/04 07:39:35;;;;;;;6.10;1.73;;;;;;;18.11;76.40;101907.84;5255861;28;20498;-71
2022/07/04 07:42:06;;;;;;;5.70;1.92;;;;;;;18.06;74.84;101910.09;5250613;28;20456;-70
2022/07/04 07:44:37;;;;;;;5.18;1.90;;;;;;;17.99;76.62;101909.84;5243069;28;20124;-70
2022/07/04 07:47:08;;;;;;;5.55;1.83;;;;;;;18.05;75.62;101905.72;5255239;28;20119;-72
2022/07/04 07:49:40;;;;;;;6.25;1.50;;;;;;;18.09;75.00;101902.59;5250136;28;20017;-71
2022/07/04 07:52:11;;;;;;;3.78;1.45;;;;;;;18.10;74.05;101893.50;5250729;28;20111;-71
2022/07/04 07:54:43;;;;;;;5.60;1.40;;;;;;;18.08;73.09;101886.50;5244936;28;20025;-71
2022/07/04 07:57:14;;;;;;;5.22;1.50;;;;;;;18.15;72.80;101893.91;5255605;28;20383;-71
2022/07/04 07:59:46;;;;;;;6.07;1.50;;;;;;;18.15;71.92;101887.66;5251532;28;20371;-71
2022/07/04 08:02:17;;;;;;;5.38;1.55;;;;;;;18.14;72.24;101884.13;5252875;28;20025;-70
2022/07/04 08:04:48;;;;;;;4.50;1.20;;;;;;;18.27;70.15;101885.66;5242536;28;20119;-71
2022/07/04 08:07:19;;;;;;;3.80;1.48;;;;;;;18.24;70.56;101876.00;5250264;28;20029;-71
2022/07/04 08:09:51;;;;;;;4.03;1.42;;;;;;;18.38;70.19;101877.41;5251333;28;20040;-71
2022/07/04 08:12:22;;;;;;;4.60;1.40;;;;;;;18.46;70.79;101885.66;5249848;28;20040;-71
2022/07/04 08:14:53;;;;;;;3.70;1.30;;;;;;;18.53;70.09;101884.09;5237147;28;20029;-72
2022/07/04 08:17:25;;;;;;;5.00;1.55;;;;;;;18.65;70.63;101887.47;5248363;28;20473;-71
2022/07/04 08:19:56;;;;;;;3.83;1.63;;;;;;;18.64;68.61;101888.50;5242671;28;20037;-71
2022/07/04 08:22:27;;;;;;;4.35;1.38;;;;;;;18.77;69.81;101889.03;5243654;28;20048;-71
2022/07/04 08:24:59;;;;;;;5.68;1.83;;;;;;;18.76;71.58;101892.72;5253368;28;20499;-71
2022/07/04 08:27:30;;;;;;;5.78;1.60;;;;;;;18.80;68.45;101899.59;5243044;28;20070;-71
2022/07/04 08:30:01;;;;;;;4.38;1.60;;;;;;;18.96;68.97;101896.25;5244399;28;20529;-70
2022/07/04 08:32:33;;;;;;;5.20;1.73;;;;;;;19.09;70.18;101903.22;5255797;28;20063;-71
2022/07/04 08:35:06;;;;;;;4.07;1.35;;;;;;;19.14;69.45;101898.22;5248436;28;20025;-71
2022/07/04 08:37:37;;;;;;;5.47;1.33;;;;;;;19.36;69.56;101894.28;5246928;28;20104;-71
2022/07/04 08:40:09;;;;;;;4.82;1.40;;;;;;;19.31;69.10;101902.84;5253425;28;20474;-72
2022/07/04 08:42:40;;;;;;;4.65;1.35;;;;;;;19.34;67.40;101901.69;5249314;28;20025;-71
2022/07/04 08:45:15;;;;;;;5.75;1.20;;;;;;;19.42;68.11;101899.09;5245052;28;20383;-71
2022/07/04 08:47:52;;;;;;;4.60;1.42;;;;;;;19.53;68.65;101912.41;5248005;28;20483;-70
2022/07/04 08:50:30;;;;;;;6.28;1.70;;;;;;;19.50;65.95;101903.75;5239385;28;20554;-72
2022/07/04 08:53:06;;;;;;;4.15;1.38;;;;;;;19.50;67.27;101901.03;5248558;28;20230;-71
2022/07/04 08:58:33;;;;;;;6.18;2.25;;;;;;;19.75;67.64;101907.63;5241500;28;20050;-71
2022/07/04 09:01:14;;;;;;;5.03;1.30;;;;;;;19.69;68.60;101900.94;5243091;28;20061;-71
2022/07/04 09:03:46;;;;;;;3.50;1.02;;;;;;;19.88;67.04;101904.56;5242429;28;20033;-71
2022/07/04 09:06:18;;;;;;;4.20;1.30;;;;;;;19.77;65.28;101902.91;5244353;28;20541;-71
2022/07/04 09:08:49;;;;;;;4.32;1.23;;;;;;;19.87;66.62;101906.44;5247598;28;20037;-71
2022/07/04 09:11:20;;;;;;;5.55;1.52;;;;;;;19.94;66.76;101904.81;5242281;28;20049;-71
2022/07/04 09:13:52;;;;;;;4.07;1.20;;;;;;;19.89;66.10;101900.88;5248990;28;20087;-71
2022/07/04 09:16:23;;;;;;;5.13;1.50;;;;;;;19.91;64.45;101905.13;5240958;28;20048;-71
2022/07/04 09:18:55;;;;;;;3.47;1.05;;;;;;;20.05;65.60;101906.44;5243776;28;20022;-71
2022/07/04 09:21:46;;;;;;;4.70;1.63;;;;;;;20.03;64.13;101897.63;5245255;28;20024;-70
2022/07/04 09:24:44;;;;;;;4.45;0.93;;;;;;;20.18;65.25;101903.34;5247555;28;20021;-71
2022/07/04 09:27:39;;;;;;;4.22;1.20;;;;;;;20.38;64.96;101901.31;5241166;28;20025;-71
2022/07/04 09:30:12;;;;;;;5.00;1.08;;;;;;;20.46;63.56;101904.13;5239382;28;20040;-71
2022/07/04 09:33:02;;;;;;;6.68;1.55;;;;;;;20.41;61.93;101901.03;5239211;28;20522;-71
2022/07/04 09:35:34;;;;;;;4.97;1.20;;;;;;;20.22;61.58;101906.63;5260655;28;20104;-69
2022/07/04 09:38:06;;;;;;;5.00;1.33;;;;;;;20.20;61.73;101903.22;5238830;28;20032;-71
2022/07/04 09:43:29;;;;;;;4.88;1.20;;;;;;;20.32;60.83;101901.94;5244015;28;20458;-70
2022/07/04 09:46:01;;;;;;;4.13;1.02;;;;;;;20.51;62.48;101904.50;5253185;28;20029;-71
2022/07/04 09:48:49;;;;;;;3.92;1.60;;;;;;;20.56;62.53;101898.59;5251611;28;20095;-71
2022/07/04 09:51:40;;;;;;;3.33;1.23;;;;;;;20.65;61.20;101895.00;5249169;28;20059;-71
2022/07/04 09:54:31;;;;;;;4.63;1.30;;;;;;;20.95;60.02;101898.22;5253681;28;20033;-71
2022/07/04 09:57:03;;;;;;;5.28;1.33;;;;;;;21.34;61.63;101892.31;5253663;28;20056;-71
2022/07/04 09:59:34;;;;;;;4.63;1.10;;;;;;;21.43;61.91;101887.78;5248823;28;20441;-71
2022/07/04 10:02:10;;;;;;;4.28;1.10;;;;;;;21.48;59.17;101896.34;5252134;28;20475;-71
2022/07/04 10:04:49;;;;;;;5.22;1.20;;;;;;;21.37;60.44;101899.31;5250485;28;20022;-71
2022/07/04 10:07:43;;;;;;;5.00;1.20;;;;;;;21.23;62.35;101898.03;5254867;28;20021;-71
2022/07/04 10:10:35;;;;;;;6.53;1.50;;;;;;;21.12;63.18;101893.75;5248830;28;20040;-71
2022/07/04 10:13:09;;;;;;;6.07;1.40;;;;;;;21.17;62.25;101890.53;5250163;28;20068;-71
2022/07/04 10:15:42;;;;;;;4.22;1.08;;;;;;;21.31;62.85;101887.25;5252126;28;20468;-71
2022/07/04 10:18:14;;;;;;;5.10;1.40;;;;;;;21.31;60.07;101888.06;5255810;28;20074;-71
2022/07/04 10:20:46;;;;;;;5.05;1.48;;;;;;;21.47;60.71;101884.59;5249841;28;20476;-71
2022/07/04 10:23:19;;;;;;;4.22;1.30;;;;;;;21.47;59.28;101881.88;5253524;28;20025;-71
2022/07/04 10:25:53;;;;;;;4.10;1.15;;;;;;;21.69;58.78;101885.88;5250435;28;20033;-71
2022/07/04 10:28:25;;;;;;;5.05;1.52;;;;;;;21.46;56.63;101872.06;5241385;28;20056;-72
2022/07/04 10:30:57;;;;;;;4.35;1.45;;;;;;;21.65;58.05;101873.66;5248255;28;20443;-72
2022/07/04 10:33:30;;;;;;;5.45;1.42;;;;;;;21.79;58.83;101872.16;5248101;28;20029;-72
2022/07/04 10:36:03;;;;;;;5.30;1.55;;;;;;;22.00;59.23;101873.56;5249307;28;20024;-72
2022/07/04 10:38:54;;;;;;;4.90;1.42;;;;;;;22.01;59.87;101867.09;5254220;28;20025;-73
2022/07/04 10:41:28;;;;;;;4.28;1.35;;;;;;;22.06;56.93;101865.56;5249715;28;20034;-72
2022/07/04 10:44:08;;;;;;;6.32;1.40;;;;;;;22.02;57.76;101869.66;5255933;28;20033;-72
2022/07/04 10:46:46;;;;;;;3.63;1.55;;;;;;;22.03;56.79;101863.19;5264418;28;20021;-72
2022/07/04 10:49:23;;;;;;;5.18;1.33;;;;;;;22.02;57.04;101861.50;5251936;28;20111;-72
2022/07/04 10:51:58;;;;;;;9.02;1.77;;;;;;;22.21;55.35;101867.63;5246430;28;20078;-71
2022/07/04 10:54:32;;;;;;;5.22;1.40;;;;;;;22.17;54.71;101855.38;5245817;28;20040;-72
2022/07/04 10:57:21;;;;;;;4.72;1.35;;;;;;;22.37;55.98;101862.22;5247182;28;20049;-72
2022/07/04 10:59:56;;;;;;;6.53;1.67;;;;;;;22.56;54.73;101854.72;5245167;28;20037;-72
2022/07/04 11:02:29;;;;;;;6.38;1.67;;;;;;;22.78;55.90;101859.47;5251182;28;20043;-72
2022/07/04 11:05:03;;;;;;;4.97;1.48;;;;;;;22.88;54.74;101860.13;5251616;28;20025;-72
2022/07/04 11:07:34;;;;;;;4.97;1.63;;;;;;;23.10;53.97;101857.69;5246702;28;20100;-72
2022/07/04 11:12:55;;;;;;;4.32;1.27;;;;;;;23.68;52.09;101850.97;5247362;28;20292;-72
2022/07/04 11:15:27;;;;;;;3.60;1.27;;;;;;;23.72;49.77;101862.34;5242544;28;20029;-72
2022/07/04 11:18:02;;;;;;;4.05;1.17;;;;;;;23.90;50.90;101853.06;5245164;28;20565;-72
2022/07/04 11:20:36;;;;;;;5.38;1.65;;;;;;;24.28;49.95;101851.25;5235405;28;20037;-73
2022/07/04 11:23:08;;;;;;;;;;;;;;;24.42;49.48;101861.34;5242947;28;20514;-72
2022/07/04 11:25:44;;;;;;;3.53;1.33;;;;;;;24.01;49.68;101853.50;5252688;28;20345;-72
2022/07/04 11:28:30;;;;;;;4.70;1.40;;;;;;;23.93;51.71;101850.81;5251683;28;20053;-73
2022/07/04 11:31:01;;;;;;;3.60;1.50;;;;;;;23.84;49.19;101846.47;5240938;28;20048;-72
2022/07/04 11:33:35;;;;;;;4.80;1.35;;;;;;;23.64;49.72;101849.63;5241265;28;20029;-72
2022/07/04 11:36:06;;;;;;;;;;;;;;;23.98;52.77;101842.09;5251248;28;20590;-72
2022/07/04 11:38:50;;;;;;;4.22;1.30;;;;;;;23.93;50.41;101847.25;5250708;28;19917;-72
2022/07/04 11:47:25;;;;;;;7.93;2.03;;;;;;;23.56;50.24;101844.22;5250831;28;20036;-72
2022/07/04 11:49:57;;;;;;;6.20;2.15;;;;;;;23.39;51.41;101845.31;5242996;28;20600;-72
2022/07/04 11:52:38;;;;;;;6.97;2.78;;;;;;;23.39;53.15;101845.31;5250425;28;20108;-72
2022/07/04 11:55:12;;;;;;;6.68;2.30;;;;;;;23.28;52.37;101832.97;5243898;28;20028;-72
2022/07/04 11:57:49;;;;;;;5.15;2.15;;;;;;;23.55;53.83;101831.63;5252568;28;20044;-72
2022/07/04 12:00:26;;;;;;;5.20;1.98;;;;;;;23.78;51.48;101830.78;5242780;28;20114;-71
2022/07/04 12:03:01;;;;;;;6.05;2.10;;;;;;;23.80;48.38;101840.53;5252218;28;20059;-72
2022/07/04 12:05:32;;;;;;;5.03;2.65;;;;;;;23.39;47.93;101828.97;5253113;28;20369;-72
2022/07/04 12:08:05;;;;;;;7.07;2.35;;;;;;;23.47;49.18;101837.09;5251910;28;20068;-73